FCBB

Maya-Maya Airport

Brazzaville, Congo
METAR FCBB 172100Z 25005KT 7000 -TSRA FEW030CB BKN040 24/22 Q1014 NOSIG
Observed Flight Rules
Nov-17 @ 21:00 UTC (37 minutes ago) Marginal Visual Flight Rules
Wind Visibility Clouds Conditions
250° at 5 knots 7,001 meters
  • Few at 3,000' AGL
  • Broken at 4,000' AGL
  • Light Thunderstorm
  • Light Rain
Temperatures Readings
Current 24°C / 75°F
Dewpoint 22°C / 72°F
Humidity 89%
Altimeter 29.94" Hg
Pressure 1014 hPa
Elevation 316
METAR FCBB 172100Z 25005KT 7000 -TSRA FEW030CB BKN040 24/22 Q1014 NOSIG
Observed Flight Rules
Nov-17 @ 21:00 UTC
(37 minutes ago)
MVFR
Wind Visibility
250° at 5 knots 7,001 meters
Clouds
  • Few at 3,000' AGL
  • Broken at 4,000' AGL
Conditions
  • Light Thunderstorm
  • Light Rain
Temperature Dewpoint
24°C / 75°F 22°C / 72°F
Humidity Altimeter Pressure
89% 29.94" Hg 1014 hPa